Colin Jacob — ZCTC3 — position and weather

sailwx.info

Track history (hours):
 
Tides and Currents Weather Stations Pressure Air Temp Water Temp Dewpoint Dewpoint Depression Visibility Wind Speed Wind Dir Waves Ship Positions

Colin Jacob

Last reported at 2017-Nov-20 00:30 UTC. Time now 2017-Nov-21 23:15 UTC.
Position N 39°22' W 029°10'.

Length 228 m; draft 12.2 m.

Type: Tanker. MMSI: 319767000.

Date/timePositionNaut miles runAvg speedWind from/ knotsBaromVisibWave heightAir tempDewpointWater temp
2017-Nov-20 00:30N 39°22' W 029°10'611.9
2017-Nov-20 00:00N 39°25' W 029°04'612.1
2017-Nov-19 23:30N 39°29' W 028°57'612.3
2017-Nov-19 23:00N 39°32' W 028°50'612.2
2017-Nov-19 22:30N 39°35' W 028°43'612.1
2017-Nov-19 22:01N 39°38' W 028°37'612.5
2017-Nov-19 21:30N 39°42' W 028°30'612.2
2017-Nov-19 21:00N 39°45' W 028°23'612.2
2017-Nov-19 20:31N 39°48' W 028°17'612.6
2017-Nov-19 20:00N 39°51' W 028°09'612.3
2017-Nov-19 19:30N 39°54' W 028°02'612.4
2017-Nov-19 19:00N 39°57' W 027°55'612.2
2017-Nov-19 18:30N 39°60' W 027°48'  
2017-Nov-16 08:38N 48°31' W 007°38'3213.0
2017-Nov-16 06:08N 48°47' W 006°55'212.5
2017-Nov-16 06:01N 48°48' W 006°53'1012.3
2017-Nov-16 05:13N 48°53' W 006°40'812.0
2017-Nov-16 04:31N 48°57' W 006°29'112.0
2017-Nov-16 04:26N 48°58' W 006°28'511.5
2017-Nov-16 04:00N 49°00' W 006°21'711.4
2017-Nov-16 03:24N 49°04' W 006°13'511.4
2017-Nov-16 02:57N 49°07' W 006°06'1311.1
2017-Nov-16 01:44N 49°13' W 005°48'411.1
2017-Nov-16 01:22N 49°15' W 005°43'511.2
2017-Nov-16 00:54N 49°18' W 005°36'1011.6
2017-Nov-16 00:01N 49°23' W 005°22'0 0.0
2017-Nov-16 00:00N 49°23' W 005°22'612.1
2017-Nov-15 23:30N 49°26' W 005°14'1112.5
2017-Nov-15 22:35N 49°32' W 004°58'112.9
2017-Nov-15 22:29N 49°32' W 004°56'1913.4
2017-Nov-15 21:05N 49°38' W 004°29'213.6
2017-Nov-15 20:56N 49°38' W 004°26'713.5
2017-Nov-15 20:25N 49°41' W 004°16'513.4
2017-Nov-15 20:00N 49°42' W 004°08'713.2
2017-Nov-15 19:30N 49°44' W 003°58'612.8
2017-Nov-15 19:00N 49°47' W 003°49'812.3
2017-Nov-15 18:20N 49°50' W 003°37'911.6
2017-Nov-15 17:35N 49°53' W 003°24'111.3
2017-Nov-15 17:30N 49°53' W 003°23'1011.1
2017-Nov-15 16:37N 49°56' W 003°08'211.1
2017-Nov-15 16:26N 49°57' W 003°05'511.2
2017-Nov-15 16:00N 49°58' W 002°58'611.4
2017-Nov-15 15:28N 50°00' W 002°49'611.8
2017-Nov-15 15:00N 50°02' W 002°41'712.3
2017-Nov-15 14:28N 50°03' W 002°31'1913.7
2017-Nov-15 13:04N 50°08' W 002°02'314.9
2017-Nov-15 12:52N 50°09' W 001°57'515.0
2017-Nov-15 12:30N 50°10' W 001°49'815.2
2017-Nov-15 12:01N 50°12' W 001°38'815.3
2017-Nov-15 11:30N 50°15' W 001°26'815.2
2017-Nov-15 11:00N 50°17' W 001°15'3413.2
2017-Nov-15 08:26N 50°26' W 000°23'611.6
2017-Nov-15 07:57N 50°27' W 000°15'511.2
2017-Nov-15 07:30N 50°28' W 000°08'510.7
2017-Nov-15 07:00N 50°30' E 000°01'510.4
2017-Nov-15 06:30N 50°31' E 000°08'510.2
2017-Nov-15 06:00N 50°32' E 000°16'510.6
2017-Nov-15 05:30N 50°34' E 000°24'611.1
2017-Nov-15 05:00N 50°35' E 000°33'611.9
2017-Nov-15 04:30N 50°39' E 000°40'612.4
2017-Nov-15 04:00N 50°43' E 000°48'713.0
2017-Nov-15 03:30N 50°47' E 000°55'713.3
2017-Nov-15 03:00N 50°51' E 001°03'713.3
2017-Nov-15 02:30N 50°56' E 001°11'713.1
2017-Nov-15 02:00N 50°60' E 001°19'612.5
2017-Nov-15 01:30N 51°04' E 001°27'611.8
2017-Nov-15 01:00N 51°08' E 001°34'611.1
2017-Nov-15 00:30N 51°11' E 001°41'510.8
2017-Nov-15 00:00N 51°15' E 001°47'510.5
2017-Nov-14 23:30N 51°19' E 001°52'510.3
2017-Nov-14 23:00N 51°23' E 001°57'5 9.3
2017-Nov-14 22:30N 51°26' E 002°03'1 1.1
2017-Nov-14 22:00N 51°27' E 002°03'1 1.7
2017-Nov-14 21:30N 51°26' E 002°02'4 7.6
2017-Nov-14 21:00N 51°24' E 002°06'5 9.0
2017-Nov-14 20:30N 51°22' E 002°13'3 4.7
2017-Nov-14 19:58N 51°23' E 002°10'3 6.4
2017-Nov-14 19:30N 51°21' E 002°13'611.5
2017-Nov-14 19:00N 51°21' E 002°23'712.8
2017-Nov-14 18:29N 51°23' E 002°33'612.0
2017-Nov-14 17:59N 51°23' E 002°42'611.7
2017-Nov-14 17:30N 51°25' E 002°50'612.7
2017-Nov-14 17:00N 51°25' E 003°01'612.7
2017-Nov-14 16:30N 51°24' E 003°11'713.1
2017-Nov-14 16:00N 51°24' E 003°21'713.2
2017-Nov-14 15:30N 51°26' E 003°32'4 8.0
2017-Nov-14 15:00N 51°26' E 003°38'510.5
2017-Nov-14 14:31N 51°23' E 003°44'713.3
2017-Nov-14 14:01N 51°22' E 003°54'611.5
2017-Nov-14 13:30N 51°26' E 004°01'611.2
2017-Nov-14 13:00N 51°22' E 004°07'4 7.8
2017-Nov-14 12:30N 51°22' E 004°13'3 5.6
2017-Nov-14 12:00N 51°21' E 004°17'0 0.0
2017-Nov-14 11:30N 51°21' E 004°17'0 0.0
2017-Nov-14 11:00N 51°21' E 004°17'0 0.7
2017-Nov-14 10:31N 51°21' E 004°18'2 3.6
2017-Nov-14 10:01N 51°19' E 004°19'3 5.1
2017-Nov-14 09:30N 51°17' E 004°21'1 0.9
2017-Nov-14 08:56N 51°16' E 004°21'0 0.0
2017-Nov-14 08:20N 51°16' E 004°21'0 0.0
2017-Nov-14 07:56N 51°16' E 004°21'0 0.0
2017-Nov-14 07:29N 51°16' E 004°21'0 0.0
2017-Nov-14 06:59N 51°16' E 004°21'0 0.0
2017-Nov-14 06:29N 51°16' E 004°21'0 0.0
2017-Nov-14 05:59N 51°16' E 004°21'0 0.0
2017-Nov-14 05:26N 51°16' E 004°21'0 0.0
2017-Nov-14 04:59N 51°16' E 004°21'0 0.0
2017-Nov-14 04:26N 51°16' E 004°21'0 0.0
2017-Nov-14 03:59N 51°16' E 004°21'0 0.0
2017-Nov-14 03:29N 51°16' E 004°21'0 0.0
2017-Nov-14 02:59N 51°16' E 004°21'0 0.0
2017-Nov-14 02:29N 51°16' E 004°21'0 0.0
2017-Nov-14 01:53N 51°16' E 004°21'0 0.0
2017-Nov-14 01:29N 51°16' E 004°21'0 0.0
2017-Nov-14 00:59N 51°16' E 004°21'0 0.0
2017-Nov-14 00:29N 51°16' E 004°21'0 0.0
2017-Nov-13 23:59N 51°16' E 004°21'0 0.0
2017-Nov-13 23:29N 51°16' E 004°21'0 0.0
2017-Nov-13 22:59N 51°16' E 004°21'0 0.0
2017-Nov-13 22:29N 51°16' E 004°21'0 0.0
2017-Nov-13 21:53N 51°16' E 004°21'0 0.0
2017-Nov-13 01:59N 51°16' E 004°21'0 0.0
2017-Nov-13 01:29N 51°16' E 004°21'0 0.0
2017-Nov-13 00:59N 51°16' E 004°21'0 0.0
2017-Nov-13 00:29N 51°16' E 004°21'0 0.0
2017-Nov-12 23:56N 51°16' E 004°21'0 0.0
2017-Nov-12 23:23N 51°16' E 004°21'0 0.0
2017-Nov-12 22:59N 51°16' E 004°21'0 0.0
2017-Nov-12 22:29N 51°16' E 004°21'0 0.0
2017-Nov-12 21:59N 51°16' E 004°21'0 0.0
2017-Nov-12 21:29N 51°16' E 004°21'0 0.0
2017-Nov-12 20:59N 51°16' E 004°21'0 0.0
2017-Nov-12 20:29N 51°16' E 004°21'0 0.0
2017-Nov-12 19:59N 51°16' E 004°21'0 0.0
2017-Nov-12 19:29N 51°16' E 004°21'0 0.0
2017-Nov-12 18:59N 51°16' E 004°21'0 0.0
2017-Nov-12 18:29N 51°16' E 004°21'0 0.0
2017-Nov-12 17:59N 51°16' E 004°21'0 0.0
2017-Nov-12 17:26N 51°16' E 004°21'0 0.0
2017-Nov-12 16:59N 51°16' E 004°21'0 0.0
2017-Nov-12 16:29N 51°16' E 004°21'0 0.0
2017-Nov-12 15:59N 51°16' E 004°21'0 0.0
2017-Nov-12 15:29N 51°16' E 004°21'0 0.0
2017-Nov-12 14:59N 51°16' E 004°21'0 0.0
2017-Nov-12 14:29N 51°16' E 004°21'0 0.0
2017-Nov-12 13:59N 51°16' E 004°21'0 0.0
2017-Nov-12 13:29N 51°16' E 004°21'0 0.0
2017-Nov-12 12:59N 51°16' E 004°21'0 0.0
2017-Nov-12 12:26N 51°16' E 004°21'0 0.0
2017-Nov-12 11:56N 51°16' E 004°21'0 0.0
2017-Nov-12 11:26N 51°16' E 004°21'0 0.0
2017-Nov-12 10:59N 51°16' E 004°21'0 0.0
2017-Nov-12 10:29N 51°16' E 004°21'0 0.0
2017-Nov-12 09:59N 51°16' E 004°21'0 0.0
2017-Nov-12 09:29N 51°16' E 004°21'0 0.0
2017-Nov-12 08:59N 51°16' E 004°21'0 0.0
2017-Nov-12 08:29N 51°16' E 004°21'0 0.0
2017-Nov-12 07:59N 51°16' E 004°21'0 0.0
2017-Nov-12 07:26N 51°16' E 004°21'0 0.0
2017-Nov-12 06:53N 51°16' E 004°21'0 0.0
2017-Nov-12 06:29N 51°16' E 004°21'0 0.0
2017-Nov-12 05:56N 51°16' E 004°21'0 0.0
2017-Nov-12 05:29N 51°16' E 004°21'0 0.0
2017-Nov-12 04:59N 51°16' E 004°21'0 0.0
2017-Nov-12 04:29N 51°16' E 004°21'0 0.0
2017-Nov-12 03:59N 51°16' E 004°21'0 0.0
2017-Nov-12 03:29N 51°16' E 004°21'0 0.0
2017-Nov-12 02:56N 51°16' E 004°21'0 0.0
2017-Nov-12 02:26N 51°16' E 004°21'0 0.0
2017-Nov-12 01:59N 51°16' E 004°21'0 0.0
2017-Nov-12 01:29N 51°16' E 004°21'0 0.0
2017-Nov-12 00:59N 51°16' E 004°21'0 0.0
2017-Nov-12 00:29N 51°16' E 004°21'0 0.0
2017-Nov-11 23:56N 51°16' E 004°21'0 0.0
2017-Nov-11 23:26N 51°16' E 004°21'0 0.0
2017-Nov-11 22:59N 51°16' E 004°21'0 0.0
2017-Nov-11 22:29N 51°16' E 004°21'0 0.0
2017-Nov-11 21:56N 51°16' E 004°21'0 0.0
2017-Nov-11 21:26N 51°16' E 004°21'0 0.0
2017-Nov-11 20:59N 51°16' E 004°21'0 0.0
2017-Nov-11 20:29N 51°16' E 004°21'0 0.0
2017-Nov-11 19:59N 51°16' E 004°21'0 0.0
2017-Nov-11 19:29N 51°16' E 004°21'0 0.0
2017-Nov-11 18:59N 51°16' E 004°21'0 0.0
2017-Nov-11 18:29N 51°16' E 004°21'0 0.0
2017-Nov-11 17:59N 51°16' E 004°21'0 0.0
2017-Nov-11 17:26N 51°16' E 004°21'0 0.0
2017-Nov-11 16:59N 51°16' E 004°21'0 0.0
2017-Nov-11 16:29N 51°16' E 004°21'0 0.0
2017-Nov-11 15:59N 51°16' E 004°21'0 0.0
2017-Nov-11 15:29N 51°16' E 004°21'0 0.0
2017-Nov-11 14:56N 51°16' E 004°21'0 0.0
2017-Nov-11 14:23N 51°16' E 004°21'0 0.0
2017-Nov-11 13:59N 51°16' E 004°21'0 0.0
2017-Nov-11 13:29N 51°16' E 004°21'0 0.0
2017-Nov-11 12:59N 51°16' E 004°21'0 0.0
2017-Nov-11 12:29N 51°16' E 004°21'0 0.0
2017-Nov-11 11:59N 51°16' E 004°21'0 0.0
2017-Nov-11 11:29N 51°16' E 004°21'0 0.0
2017-Nov-11 10:59N 51°16' E 004°21'0 0.0
2017-Nov-11 10:29N 51°16' E 004°21'0 0.0
2017-Nov-11 09:59N 51°16' E 004°21'0 0.0
2017-Nov-11 09:29N 51°16' E 004°21'0 0.0
2017-Nov-11 08:59N 51°16' E 004°21'0 0.0
2017-Nov-11 08:29N 51°16' E 004°21'0 0.0
2017-Nov-11 07:59N 51°16' E 004°21'0 0.0
2017-Nov-11 07:29N 51°16' E 004°21'0 0.1
2017-Nov-11 07:00N 51°16' E 004°21'2 3.7
2017-Nov-11 06:30N 51°18' E 004°20'3 6.2
2017-Nov-11 06:00N 51°21' E 004°18'0 0.7
2017-Nov-11 05:30N 51°21' E 004°17'0 0.0
2017-Nov-11 05:00N 51°21' E 004°17'0 0.0
2017-Nov-11 04:31N 51°21' E 004°17'1 1.1
2017-Nov-11 04:01N 51°21' E 004°16'3 5.2
2017-Nov-11 03:31N 51°22' E 004°13'4 8.6
2017-Nov-11 03:01N 51°22' E 004°06'611.0
2017-Nov-11 02:31N 51°26' E 004°00'611.9
2017-Nov-11 02:00N 51°21' E 003°54'510.6
2017-Nov-11 01:30N 51°22' E 003°46'510.4
2017-Nov-11 01:00N 51°26' E 003°41'4 8.6
2017-Nov-11 00:30N 51°25' E 003°34'4 8.5
2017-Nov-11 00:00N 51°25' E 003°27'5 9.5
2017-Nov-10 23:30N 51°24' E 003°20'5 9.6
2017-Nov-10 23:00N 51°24' E 003°12'510.4
2017-Nov-10 22:30N 51°24' E 003°04'611.7
2017-Nov-10 22:00N 51°22' E 002°55'611.5
2017-Nov-10 21:30N 51°22' E 002°46'3 5.1
2017-Nov-10 20:59N 51°22' E 002°42'3 5.2
2017-Nov-10 20:29N 51°25' E 002°40'0 0.2
2017-Nov-10 19:58N 51°25' E 002°40'0 0.0
2017-Nov-10 19:28N 51°25' E 002°40'0 0.1
2017-Nov-10 18:55N 51°25' E 002°40'0 0.0
2017-Nov-10 18:25N 51°25' E 002°40'0 0.0
2017-Nov-10 17:58N 51°25' E 002°40'0 0.1
2017-Nov-10 17:28N 51°25' E 002°40'0 0.0
2017-Nov-10 16:58N 51°25' E 002°40'0 0.0
2017-Nov-10 16:25N 51°25' E 002°40'0 0.1
2017-Nov-10 15:58N 51°25' E 002°40'0 0.1
2017-Nov-10 15:28N 51°25' E 002°40'0 0.1
2017-Nov-10 14:55N 51°25' E 002°40'0 0.0
2017-Nov-10 14:28N 51°25' E 002°40'0 0.0
2017-Nov-10 13:58N 51°25' E 002°40'0 0.0
2017-Nov-10 13:28N 51°25' E 002°40'0 0.0
2017-Nov-10 12:58N 51°25' E 002°40'0 0.0
2017-Nov-10 12:22N 51°25' E 002°40'0 0.0
2017-Nov-10 11:58N 51°25' E 002°40'0 0.1
2017-Nov-10 11:25N 51°25' E 002°40'0 0.1
2017-Nov-10 10:25N 51°25' E 002°40'0 0.0
2017-Nov-10 09:46N 51°25' E 002°40'0 0.3
2017-Nov-10 09:28N 51°25' E 002°40'0 0.0
2017-Nov-10 08:49N 51°25' E 002°40'0 0.0
2017-Nov-10 08:25N 51°25' E 002°40'0 0.2
2017-Nov-10 07:58N 51°25' E 002°40'0 0.6
2017-Nov-10 07:29N 51°25' E 002°40'3 6.5
2017-Nov-10 07:00N 51°24' E 002°35'4 7.4
2017-Nov-10 06:30N 51°22' E 002°30'510.4
2017-Nov-10 06:00N 51°20' E 002°22'612.9
2017-Nov-10 05:30N 51°16' E 002°14'714.8
2017-Nov-10 05:01N 51°12' E 002°04'714.9
2017-Nov-10 04:30N 51°09' E 001°53'815.1
2017-Nov-10 04:00N 51°05' E 001°43'815.1
2017-Nov-10 03:30N 50°60' E 001°34'714.2
2017-Nov-10 03:00N 50°54' E 001°28'813.5
2017-Nov-10 02:25N 50°46' E 001°25'512.6
2017-Nov-10 02:00N 50°42' E 001°21'2013.4
2017-Nov-10 00:32N 50°29' E 000°57'  
Track history (hours):
 
Tides and Currents Weather Stations Pressure Air Temp Water Temp Dewpoint Dewpoint Depression Visibility Wind Speed Wind Dir Waves Ship Positions

Colin Jacob

Last reported at 2017-Nov-20 00:30 UTC. Time now 2017-Nov-21 23:15 UTC.
Position N 39°22' W 029°10'.

Length 228 m; draft 12.2 m.

Type: Tanker. MMSI: 319767000.

Date/timePositionNaut miles runAvg speedWind from/ knotsBaromVisibWave heightAir tempDewpointWater temp
2017-Nov-20 00:30N 39°22' W 029°10'611.9
2017-Nov-20 00:00N 39°25' W 029°04'612.1
2017-Nov-19 23:30N 39°29' W 028°57'612.3
2017-Nov-19 23:00N 39°32' W 028°50'612.2
2017-Nov-19 22:30N 39°35' W 028°43'612.1
2017-Nov-19 22:01N 39°38' W 028°37'612.5
2017-Nov-19 21:30N 39°42' W 028°30'612.2
2017-Nov-19 21:00N 39°45' W 028°23'612.2
2017-Nov-19 20:31N 39°48' W 028°17'612.6
2017-Nov-19 20:00N 39°51' W 028°09'612.3
2017-Nov-19 19:30N 39°54' W 028°02'612.4
2017-Nov-19 19:00N 39°57' W 027°55'612.2
2017-Nov-19 18:30N 39°60' W 027°48'  
2017-Nov-16 08:38N 48°31' W 007°38'3213.0
2017-Nov-16 06:08N 48°47' W 006°55'212.5
2017-Nov-16 06:01N 48°48' W 006°53'1012.3
2017-Nov-16 05:13N 48°53' W 006°40'812.0
2017-Nov-16 04:31N 48°57' W 006°29'112.0
2017-Nov-16 04:26N 48°58' W 006°28'511.5
2017-Nov-16 04:00N 49°00' W 006°21'711.4
2017-Nov-16 03:24N 49°04' W 006°13'511.4
2017-Nov-16 02:57N 49°07' W 006°06'1311.1
2017-Nov-16 01:44N 49°13' W 005°48'411.1
2017-Nov-16 01:22N 49°15' W 005°43'511.2
2017-Nov-16 00:54N 49°18' W 005°36'1011.6
2017-Nov-16 00:01N 49°23' W 005°22'0 0.0
2017-Nov-16 00:00N 49°23' W 005°22'612.1
2017-Nov-15 23:30N 49°26' W 005°14'1112.5
2017-Nov-15 22:35N 49°32' W 004°58'112.9
2017-Nov-15 22:29N 49°32' W 004°56'1913.4
2017-Nov-15 21:05N 49°38' W 004°29'213.6
2017-Nov-15 20:56N 49°38' W 004°26'713.5
2017-Nov-15 20:25N 49°41' W 004°16'513.4
2017-Nov-15 20:00N 49°42' W 004°08'713.2
2017-Nov-15 19:30N 49°44' W 003°58'612.8
2017-Nov-15 19:00N 49°47' W 003°49'812.3
2017-Nov-15 18:20N 49°50' W 003°37'911.6
2017-Nov-15 17:35N 49°53' W 003°24'111.3
2017-Nov-15 17:30N 49°53' W 003°23'1011.1
2017-Nov-15 16:37N 49°56' W 003°08'211.1
2017-Nov-15 16:26N 49°57' W 003°05'511.2
2017-Nov-15 16:00N 49°58' W 002°58'611.4
2017-Nov-15 15:28N 50°00' W 002°49'611.8
2017-Nov-15 15:00N 50°02' W 002°41'712.3
2017-Nov-15 14:28N 50°03' W 002°31'1913.7
2017-Nov-15 13:04N 50°08' W 002°02'314.9
2017-Nov-15 12:52N 50°09' W 001°57'515.0
2017-Nov-15 12:30N 50°10' W 001°49'815.2
2017-Nov-15 12:01N 50°12' W 001°38'815.3
2017-Nov-15 11:30N 50°15' W 001°26'815.2
2017-Nov-15 11:00N 50°17' W 001°15'3413.2
2017-Nov-15 08:26N 50°26' W 000°23'611.6
2017-Nov-15 07:57N 50°27' W 000°15'511.2
2017-Nov-15 07:30N 50°28' W 000°08'510.7
2017-Nov-15 07:00N 50°30' E 000°01'510.4
2017-Nov-15 06:30N 50°31' E 000°08'510.2
2017-Nov-15 06:00N 50°32' E 000°16'510.6
2017-Nov-15 05:30N 50°34' E 000°24'611.1
2017-Nov-15 05:00N 50°35' E 000°33'611.9
2017-Nov-15 04:30N 50°39' E 000°40'612.4
2017-Nov-15 04:00N 50°43' E 000°48'713.0
2017-Nov-15 03:30N 50°47' E 000°55'713.3
2017-Nov-15 03:00N 50°51' E 001°03'713.3
2017-Nov-15 02:30N 50°56' E 001°11'713.1
2017-Nov-15 02:00N 50°60' E 001°19'612.5
2017-Nov-15 01:30N 51°04' E 001°27'611.8
2017-Nov-15 01:00N 51°08' E 001°34'611.1
2017-Nov-15 00:30N 51°11' E 001°41'510.8
2017-Nov-15 00:00N 51°15' E 001°47'510.5
2017-Nov-14 23:30N 51°19' E 001°52'510.3
2017-Nov-14 23:00N 51°23' E 001°57'5 9.3
2017-Nov-14 22:30N 51°26' E 002°03'1 1.1
2017-Nov-14 22:00N 51°27' E 002°03'1 1.7
2017-Nov-14 21:30N 51°26' E 002°02'4 7.6
2017-Nov-14 21:00N 51°24' E 002°06'5 9.0
2017-Nov-14 20:30N 51°22' E 002°13'3 4.7
2017-Nov-14 19:58N 51°23' E 002°10'3 6.4
2017-Nov-14 19:30N 51°21' E 002°13'611.5
2017-Nov-14 19:00N 51°21' E 002°23'712.8
2017-Nov-14 18:29N 51°23' E 002°33'612.0
2017-Nov-14 17:59N 51°23' E 002°42'611.7
2017-Nov-14 17:30N 51°25' E 002°50'612.7
2017-Nov-14 17:00N 51°25' E 003°01'612.7
2017-Nov-14 16:30N 51°24' E 003°11'713.1
2017-Nov-14 16:00N 51°24' E 003°21'713.2
2017-Nov-14 15:30N 51°26' E 003°32'4 8.0
2017-Nov-14 15:00N 51°26' E 003°38'510.5
2017-Nov-14 14:31N 51°23' E 003°44'713.3
2017-Nov-14 14:01N 51°22' E 003°54'611.5
2017-Nov-14 13:30N 51°26' E 004°01'611.2
2017-Nov-14 13:00N 51°22' E 004°07'4 7.8
2017-Nov-14 12:30N 51°22' E 004°13'3 5.6
2017-Nov-14 12:00N 51°21' E 004°17'0 0.0
2017-Nov-14 11:30N 51°21' E 004°17'0 0.0
2017-Nov-14 11:00N 51°21' E 004°17'0 0.7
2017-Nov-14 10:31N 51°21' E 004°18'2 3.6
2017-Nov-14 10:01N 51°19' E 004°19'3 5.1
2017-Nov-14 09:30N 51°17' E 004°21'1 0.9
2017-Nov-14 08:56N 51°16' E 004°21'0 0.0
2017-Nov-14 08:20N 51°16' E 004°21'0 0.0
2017-Nov-14 07:56N 51°16' E 004°21'0 0.0
2017-Nov-14 07:29N 51°16' E 004°21'0 0.0
2017-Nov-14 06:59N 51°16' E 004°21'0 0.0
2017-Nov-14 06:29N 51°16' E 004°21'0 0.0
2017-Nov-14 05:59N 51°16' E 004°21'0 0.0
2017-Nov-14 05:26N 51°16' E 004°21'0 0.0
2017-Nov-14 04:59N 51°16' E 004°21'0 0.0
2017-Nov-14 04:26N 51°16' E 004°21'0 0.0
2017-Nov-14 03:59N 51°16' E 004°21'0 0.0
2017-Nov-14 03:29N 51°16' E 004°21'0 0.0
2017-Nov-14 02:59N 51°16' E 004°21'0 0.0
2017-Nov-14 02:29N 51°16' E 004°21'0 0.0
2017-Nov-14 01:53N 51°16' E 004°21'0 0.0
2017-Nov-14 01:29N 51°16' E 004°21'0 0.0
2017-Nov-14 00:59N 51°16' E 004°21'0 0.0
2017-Nov-14 00:29N 51°16' E 004°21'0 0.0
2017-Nov-13 23:59N 51°16' E 004°21'0 0.0
2017-Nov-13 23:29N 51°16' E 004°21'0 0.0
2017-Nov-13 22:59N 51°16' E 004°21'0 0.0
2017-Nov-13 22:29N 51°16' E 004°21'0 0.0
2017-Nov-13 21:53N 51°16' E 004°21'0 0.0
2017-Nov-13 01:59N 51°16' E 004°21'0 0.0
2017-Nov-13 01:29N 51°16' E 004°21'0 0.0
2017-Nov-13 00:59N 51°16' E 004°21'0 0.0
2017-Nov-13 00:29N 51°16' E 004°21'0 0.0
2017-Nov-12 23:56N 51°16' E 004°21'0 0.0
2017-Nov-12 23:23N 51°16' E 004°21'0 0.0
2017-Nov-12 22:59N 51°16' E 004°21'0 0.0
2017-Nov-12 22:29N 51°16' E 004°21'0 0.0
2017-Nov-12 21:59N 51°16' E 004°21'0 0.0
2017-Nov-12 21:29N 51°16' E 004°21'0 0.0
2017-Nov-12 20:59N 51°16' E 004°21'0 0.0
2017-Nov-12 20:29N 51°16' E 004°21'0 0.0
2017-Nov-12 19:59N 51°16' E 004°21'0 0.0
2017-Nov-12 19:29N 51°16' E 004°21'0 0.0
2017-Nov-12 18:59N 51°16' E 004°21'0 0.0
2017-Nov-12 18:29N 51°16' E 004°21'0 0.0
2017-Nov-12 17:59N 51°16' E 004°21'0 0.0
2017-Nov-12 17:26N 51°16' E 004°21'0 0.0
2017-Nov-12 16:59N 51°16' E 004°21'0 0.0
2017-Nov-12 16:29N 51°16' E 004°21'0 0.0
2017-Nov-12 15:59N 51°16' E 004°21'0 0.0
2017-Nov-12 15:29N 51°16' E 004°21'0 0.0
2017-Nov-12 14:59N 51°16' E 004°21'0 0.0
2017-Nov-12 14:29N 51°16' E 004°21'0 0.0
2017-Nov-12 13:59N 51°16' E 004°21'0 0.0
2017-Nov-12 13:29N 51°16' E 004°21'0 0.0
2017-Nov-12 12:59N 51°16' E 004°21'0 0.0
2017-Nov-12 12:26N 51°16' E 004°21'0 0.0
2017-Nov-12 11:56N 51°16' E 004°21'0 0.0
2017-Nov-12 11:26N 51°16' E 004°21'0 0.0
2017-Nov-12 10:59N 51°16' E 004°21'0 0.0
2017-Nov-12 10:29N 51°16' E 004°21'0 0.0
2017-Nov-12 09:59N 51°16' E 004°21'0 0.0
2017-Nov-12 09:29N 51°16' E 004°21'0 0.0
2017-Nov-12 08:59N 51°16' E 004°21'0 0.0
2017-Nov-12 08:29N 51°16' E 004°21'0 0.0
2017-Nov-12 07:59N 51°16' E 004°21'0 0.0
2017-Nov-12 07:26N 51°16' E 004°21'0 0.0
2017-Nov-12 06:53N 51°16' E 004°21'0 0.0
2017-Nov-12 06:29N 51°16' E 004°21'0 0.0
2017-Nov-12 05:56N 51°16' E 004°21'0 0.0
2017-Nov-12 05:29N 51°16' E 004°21'0 0.0
2017-Nov-12 04:59N 51°16' E 004°21'0 0.0
2017-Nov-12 04:29N 51°16' E 004°21'0 0.0
2017-Nov-12 03:59N 51°16' E 004°21'0 0.0
2017-Nov-12 03:29N 51°16' E 004°21'0 0.0
2017-Nov-12 02:56N 51°16' E 004°21'0 0.0
2017-Nov-12 02:26N 51°16' E 004°21'0 0.0
2017-Nov-12 01:59N 51°16' E 004°21'0 0.0
2017-Nov-12 01:29N 51°16' E 004°21'0 0.0
2017-Nov-12 00:59N 51°16' E 004°21'0 0.0
2017-Nov-12 00:29N 51°16' E 004°21'0 0.0
2017-Nov-11 23:56N 51°16' E 004°21'0 0.0
2017-Nov-11 23:26N 51°16' E 004°21'0 0.0
2017-Nov-11 22:59N 51°16' E 004°21'0 0.0
2017-Nov-11 22:29N 51°16' E 004°21'0 0.0
2017-Nov-11 21:56N 51°16' E 004°21'0 0.0
2017-Nov-11 21:26N 51°16' E 004°21'0 0.0
2017-Nov-11 20:59N 51°16' E 004°21'0 0.0
2017-Nov-11 20:29N 51°16' E 004°21'0 0.0
2017-Nov-11 19:59N 51°16' E 004°21'0 0.0
2017-Nov-11 19:29N 51°16' E 004°21'0 0.0
2017-Nov-11 18:59N 51°16' E 004°21'0 0.0
2017-Nov-11 18:29N 51°16' E 004°21'0 0.0
2017-Nov-11 17:59N 51°16' E 004°21'0 0.0
2017-Nov-11 17:26N 51°16' E 004°21'0 0.0
2017-Nov-11 16:59N 51°16' E 004°21'0 0.0
2017-Nov-11 16:29N 51°16' E 004°21'0 0.0
2017-Nov-11 15:59N 51°16' E 004°21'0 0.0
2017-Nov-11 15:29N 51°16' E 004°21'0 0.0
2017-Nov-11 14:56N 51°16' E 004°21'0 0.0
2017-Nov-11 14:23N 51°16' E 004°21'0 0.0
2017-Nov-11 13:59N 51°16' E 004°21'0 0.0
2017-Nov-11 13:29N 51°16' E 004°21'0 0.0
2017-Nov-11 12:59N 51°16' E 004°21'0 0.0
2017-Nov-11 12:29N 51°16' E 004°21'0 0.0
2017-Nov-11 11:59N 51°16' E 004°21'0 0.0
2017-Nov-11 11:29N 51°16' E 004°21'0 0.0
2017-Nov-11 10:59N 51°16' E 004°21'0 0.0
2017-Nov-11 10:29N 51°16' E 004°21'0 0.0
2017-Nov-11 09:59N 51°16' E 004°21'0 0.0
2017-Nov-11 09:29N 51°16' E 004°21'0 0.0
2017-Nov-11 08:59N 51°16' E 004°21'0 0.0
2017-Nov-11 08:29N 51°16' E 004°21'0 0.0
2017-Nov-11 07:59N 51°16' E 004°21'0 0.0
2017-Nov-11 07:29N 51°16' E 004°21'0 0.1
2017-Nov-11 07:00N 51°16' E 004°21'2 3.7
2017-Nov-11 06:30N 51°18' E 004°20'3 6.2
2017-Nov-11 06:00N 51°21' E 004°18'0 0.7
2017-Nov-11 05:30N 51°21' E 004°17'0 0.0
2017-Nov-11 05:00N 51°21' E 004°17'0 0.0
2017-Nov-11 04:31N 51°21' E 004°17'1 1.1
2017-Nov-11 04:01N 51°21' E 004°16'3 5.2
2017-Nov-11 03:31N 51°22' E 004°13'4 8.6
2017-Nov-11 03:01N 51°22' E 004°06'611.0
2017-Nov-11 02:31N 51°26' E 004°00'611.9
2017-Nov-11 02:00N 51°21' E 003°54'510.6
2017-Nov-11 01:30N 51°22' E 003°46'510.4
2017-Nov-11 01:00N 51°26' E 003°41'4 8.6
2017-Nov-11 00:30N 51°25' E 003°34'4 8.5
2017-Nov-11 00:00N 51°25' E 003°27'5 9.5
2017-Nov-10 23:30N 51°24' E 003°20'5 9.6
2017-Nov-10 23:00N 51°24' E 003°12'510.4
2017-Nov-10 22:30N 51°24' E 003°04'611.7
2017-Nov-10 22:00N 51°22' E 002°55'611.5
2017-Nov-10 21:30N 51°22' E 002°46'3 5.1
2017-Nov-10 20:59N 51°22' E 002°42'3 5.2
2017-Nov-10 20:29N 51°25' E 002°40'0 0.2
2017-Nov-10 19:58N 51°25' E 002°40'0 0.0
2017-Nov-10 19:28N 51°25' E 002°40'0 0.1
2017-Nov-10 18:55N 51°25' E 002°40'0 0.0
2017-Nov-10 18:25N 51°25' E 002°40'0 0.0
2017-Nov-10 17:58N 51°25' E 002°40'0 0.1
2017-Nov-10 17:28N 51°25' E 002°40'0 0.0
2017-Nov-10 16:58N 51°25' E 002°40'0 0.0
2017-Nov-10 16:25N 51°25' E 002°40'0 0.1
2017-Nov-10 15:58N 51°25' E 002°40'0 0.1
2017-Nov-10 15:28N 51°25' E 002°40'0 0.1
2017-Nov-10 14:55N 51°25' E 002°40'0 0.0
2017-Nov-10 14:28N 51°25' E 002°40'0 0.0
2017-Nov-10 13:58N 51°25' E 002°40'0 0.0
2017-Nov-10 13:28N 51°25' E 002°40'0 0.0
2017-Nov-10 12:58N 51°25' E 002°40'0 0.0
2017-Nov-10 12:22N 51°25' E 002°40'0 0.0
2017-Nov-10 11:58N 51°25' E 002°40'0 0.1
2017-Nov-10 11:25N 51°25' E 002°40'0 0.1
2017-Nov-10 10:25N 51°25' E 002°40'0 0.0
2017-Nov-10 09:46N 51°25' E 002°40'0 0.3
2017-Nov-10 09:28N 51°25' E 002°40'0 0.0
2017-Nov-10 08:49N 51°25' E 002°40'0 0.0
2017-Nov-10 08:25N 51°25' E 002°40'0 0.2
2017-Nov-10 07:58N 51°25' E 002°40'0 0.6
2017-Nov-10 07:29N 51°25' E 002°40'3 6.5
2017-Nov-10 07:00N 51°24' E 002°35'4 7.4
2017-Nov-10 06:30N 51°22' E 002°30'510.4
2017-Nov-10 06:00N 51°20' E 002°22'612.9
2017-Nov-10 05:30N 51°16' E 002°14'714.8
2017-Nov-10 05:01N 51°12' E 002°04'714.9
2017-Nov-10 04:30N 51°09' E 001°53'815.1
2017-Nov-10 04:00N 51°05' E 001°43'815.1
2017-Nov-10 03:30N 50°60' E 001°34'714.2
2017-Nov-10 03:00N 50°54' E 001°28'813.5
2017-Nov-10 02:25N 50°46' E 001°25'512.6
2017-Nov-10 02:00N 50°42' E 001°21'2013.4
2017-Nov-10 00:32N 50°29' E 000°57'  

Dump ship's entire track history